Terminal Aerodrome Forecast
Issued by NWS

Home | Current Version | Previous Version | Text Only | Print | Product List | Glossary Off
Versions: 1 2 3 4 5 6 7 8 9 10 11 12 13 14 15 16 17 18 19 20 21 22 23 24 25 26 27 28 29 30 31

000
FTUS43 KLOT 212104 AAA
TAFGYY
TAF AMD
KGYY 212104Z 2121/2218 13009KT 5SM BR VCTS SCT020CB BKN100
      TEMPO 2121/2124 1 1/2SM SHRA BR BKN007 OVC015
     FM220000 13006KT P6SM VCSH SCT010 OVC015
     FM220200 VRB05KT 5SM BR BKN009
     FM220700 30005KT 2SM BR SCT003 OVC005
     FM221500 34007KT P6SM BKN018=

USA.gov is the U.S. government's official web portal to all federal, state and local government web resources and services.